Latest Weather Observations for Rocky Gully South

IDW60801

Issued at 6:32 pm WST Sunday 29 March 2015 (issued every 30 minutes, with the page automatically refreshed every 10 minutes)

About weather observations | Map of weather stations | Latest weather observations for WA | Other Formats
Station Details ID: 009964 Name: ROCKY GULLY Lat: -34.57 Lon: 117.01 Height: 250.0 m
Data from the previous 72 hours. | See also: Recent months at Rocky Gully South
Date/Time
WST
Temp
°C
App
Temp
°C
Dew
Point
Rel
Hum
%
Delta-T
°C
Wind Press
QNH
hPa
Press
MSL
hPa
Rain
since 9 am
mm
Dir
 
Spd
km/h
Gust
km/h
Spd
kts
Gust
kts
29/06:30pm 19.1 18.1 13.5 70 3.2 S 11 20 6 11 - - 0.0
29/06:00pm 20.3 18.6 13.7 66 3.8 SSE 15 22 8 12 - - 0.0
29/05:30pm 22.0 19.9 13.6 59 4.9 S 17 26 9 14 - - 0.0
29/05:00pm 24.5 23.7 11.8 45 7.3 S 7 19 4 10 - - 0.0
29/04:30pm 27.5 26.8 8.4 30 10.5 SE 2 7 1 4 - - 0.0
29/04:00pm 27.3 25.3 8.7 31 10.3 NNW 9 15 5 8 - - 0.0
29/03:30pm 27.6 26.6 9.0 31 10.3 SW 4 11 2 6 - - 0.0
29/03:00pm 26.5 24.6 8.9 33 9.7 ENE 9 15 5 8 - - 0.0
29/02:30pm 26.6 25.2 9.5 34 9.5 NNE 7 11 4 6 - - 0.0
29/02:00pm 25.7 23.5 9.5 36 9.0 W 11 17 6 9 - - 0.0
29/01:30pm 25.7 24.0 9.9 37 8.8 N 9 19 5 10 - - 0.0
29/01:00pm 25.1 24.2 11.3 42 7.9 SSE 7 11 4 6 - - 0.0
29/12:30pm 24.0 23.0 11.0 44 7.3 NE 7 11 4 6 - - 0.0
29/12:00pm 23.5 22.8 11.9 48 6.6 NNW 7 17 4 9 - - 0.0
29/11:30am 22.8 21.3 11.8 50 6.3 NNW 11 19 6 10 - - 0.0
29/11:00am 21.5 20.4 11.8 54 5.5 N 9 15 5 8 - - 0.0
29/10:30am 20.8 19.9 12.5 59 4.7 N 9 13 5 7 - - 0.0
29/10:00am 19.7 19.1 12.2 62 4.2 WNW 7 11 4 6 - - 0.0
29/09:30am 19.0 18.5 12.7 67 3.6 NNW 7 13 4 7 - - 0.0
29/09:00am 18.2 17.6 12.4 69 3.3 NW 7 13 4 7 - - 0.0
29/08:30am 17.6 17.6 14.1 80 2.0 N 7 11 4 6 - - 0.0
29/08:00am 15.8 16.8 14.3 91 0.9 W 2 7 1 4 - - 0.0
29/07:30am 15.4 16.7 14.1 92 0.7 CALM 0 0 0 0 - - 0.0
29/07:00am 15.3 16.6 14.2 93 0.6 CALM 0 0 0 0 - - 0.0
29/06:30am 15.2 16.5 14.1 93 0.6 CALM 0 0 0 0 - - 0.0
29/06:00am 15.1 15.9 13.8 92 0.7 SW 2 7 1 4 - - 0.0
29/05:30am 15.2 16.5 14.1 93 0.6 CALM 0 0 0 0 - - 0.0
29/05:00am 15.2 16.1 13.9 92 0.7 SSW 2 6 1 3 - - 0.0
29/04:30am 15.4 16.3 14.1 92 0.7 SW 2 6 1 3 - - 0.0
29/04:00am 15.4 16.7 14.1 92 0.7 CALM 0 4 0 2 - - 0.0
29/03:30am 15.4 16.7 14.1 92 0.7 CALM 0 0 0 0 - - 0.0
29/03:00am 15.4 16.7 14.1 92 0.7 CALM 0 6 0 3 - - 0.0
29/02:30am 15.4 15.6 14.1 92 0.7 NNW 6 9 3 5 - - 0.0
29/02:00am 15.6 16.2 14.3 92 0.7 N 4 7 2 4 - - 0.0
29/01:30am 15.5 16.4 14.0 91 0.9 NW 2 6 1 3 - - 0.0
29/01:00am 15.6 16.9 14.1 91 0.9 CALM 0 0 0 0 - - 0.0
29/12:30am 15.7 17.0 14.1 90 0.9 CALM 0 0 0 0 - - 0.0
29/12:00am 15.9 16.8 14.1 89 1.0 SSW 2 6 1 3 - - 0.0
 
Date/Time
WST
Temp
°C
App
Temp
°C
Dew
Point
Rel
Hum
%
Delta-T
°C
Wind Press
QNH
hPa
Press
MSL
hPa
Rain
since 9 am
mm
Dir
 
Spd
km/h
Gust
km/h
Spd
kts
Gust
kts
28/11:30pm 16.0 16.1 14.0 88 1.1 S 6 9 3 5 - - 0.0
28/11:00pm 15.9 16.4 14.1 89 1.0 S 4 7 2 4 - - 0.0
28/10:30pm 15.8 16.4 14.2 90 0.9 SE 4 7 2 4 - - 0.0
28/10:00pm 15.6 16.5 14.0 90 0.9 SE 2 9 1 5 - - 0.0
28/09:30pm 15.3 15.1 13.5 89 1.0 SSE 7 9 4 5 - - 0.0
28/09:00pm 15.0 15.1 12.7 86 1.3 SE 4 7 2 4 - - 0.0
28/08:30pm 15.2 14.6 12.3 83 1.6 SSW 7 9 4 5 - - 0.0
28/08:00pm 15.9 15.0 12.5 80 1.9 S 9 13 5 7 - - 0.0
28/07:30pm 16.5 15.9 12.3 76 2.3 S 7 11 4 6 - - 0.0
28/07:00pm 17.0 16.3 11.5 70 3.0 S 6 7 3 4 - - 0.0
28/06:30pm 18.2 17.1 12.0 67 3.5 S 9 13 5 7 - - 0.0
28/06:00pm 19.4 18.4 12.2 63 4.1 SSW 9 13 5 7 - - 0.0
28/05:30pm 20.5 18.7 12.2 59 4.7 S 13 20 7 11 - - 0.0
28/05:00pm 20.7 18.7 11.6 56 5.1 S 13 19 7 10 - - 0.0
28/04:30pm 21.4 19.4 11.4 53 5.6 S 13 19 7 10 - - 0.0
28/04:00pm 23.3 21.1 10.7 45 7.1 S 13 20 7 11 - - 0.0
28/03:30pm 23.5 21.4 9.9 42 7.5 SW 11 19 6 10 - - 0.0
28/03:00pm 23.2 20.9 10.6 45 7.0 SW 13 20 7 11 - - 0.0
28/02:30pm 23.6 21.8 9.6 41 7.7 SSW 9 19 5 10 - - 0.0
28/02:00pm 23.1 20.9 8.0 38 8.0 SSW 9 17 5 9 - - 0.0
28/01:30pm 22.6 20.1 8.0 39 7.8 WSW 11 20 6 11 - - 0.0
28/01:00pm 22.3 19.7 7.7 39 7.7 W 11 20 6 11 - - 0.0
28/12:30pm 21.7 18.7 7.5 40 7.4 SW 13 22 7 12 - - 0.0
28/12:00pm 21.3 18.4 8.2 43 6.9 SSW 13 24 7 13 - - 0.0
28/11:30am 21.5 19.9 10.3 49 6.2 WSW 9 20 5 11 - - 0.0
28/11:00am 20.7 18.3 10.2 51 5.7 SSW 13 20 7 11 - - 0.0
28/10:30am 19.4 17.8 11.4 60 4.4 WSW 11 20 6 11 - - 0.0
28/10:00am 18.2 16.4 11.0 63 3.9 SSW 11 19 6 10 - - 0.0
28/09:30am 18.0 16.5 11.8 67 3.4 SW 11 17 6 9 - - 0.0
28/09:00am 17.0 15.3 11.1 68 3.2 WSW 11 15 6 8 - - 0.0
28/08:30am 16.7 15.2 11.8 73 2.7 WSW 11 17 6 9 - - 0.0
28/08:00am 15.7 15.7 13.5 87 1.2 SW 6 9 3 5 - - 0.0
28/07:30am 14.7 15.3 13.2 91 0.8 SSW 2 7 1 4 - - 0.0
28/07:00am 14.1 14.2 12.7 91 0.8 WSW 4 7 2 4 - - 0.0
28/06:30am 14.2 14.3 12.8 91 0.8 WSW 4 7 2 4 - - 0.0
28/06:00am 14.4 14.2 13.0 91 0.8 WSW 6 7 3 4 - - 0.0
28/05:30am 14.8 14.7 13.3 91 0.8 SW 6 7 3 4 - - 0.0
28/05:00am 15.1 14.9 13.6 91 0.8 WSW 7 9 4 5 - - 0.0
28/04:30am 15.3 15.2 14.0 92 0.7 WSW 7 11 4 6 - - 0.0
28/04:00am 15.2 15.1 13.9 92 0.7 SW 7 11 4 6 - - 0.0
28/03:30am 15.2 15.3 13.9 92 0.7 SW 6 9 3 5 - - 0.0
28/03:00am 15.2 15.3 13.9 92 0.7 WSW 6 9 3 5 - - 0.0
28/02:30am 15.0 15.3 13.5 91 0.8 WSW 4 7 2 4 - - 0.0
28/02:00am 15.4 15.9 13.9 91 0.9 WSW 4 7 2 4 - - 0.0
28/01:30am 15.6 16.5 14.1 91 0.9 WSW 2 6 1 3 - - 0.0
28/01:00am 15.5 16.4 14.0 91 0.9 SW 2 7 1 4 - - 0.0
28/12:30am 15.2 15.2 13.7 91 0.9 WSW 6 7 3 4 - - 0.0
28/12:00am 15.5 16.5 14.2 92 0.7 WSW 2 7 1 4 - - 0.0
 
Date/Time
WST
Temp
°C
App
Temp
°C
Dew
Point
Rel
Hum
%
Delta-T
°C
Wind Press
QNH
hPa
Press
MSL
hPa
Rain
since 9 am
mm
Dir
 
Spd
km/h
Gust
km/h
Spd
kts
Gust
kts
27/11:30pm 14.1 14.6 12.7 91 0.8 WSW 2 7 1 4 - - 0.0
27/11:00pm 13.5 13.8 12.1 91 0.8 N 2 7 1 4 - - 0.0
27/10:30pm 13.3 12.7 11.7 90 0.9 N 6 9 3 5 - - 0.0
27/10:00pm 13.6 12.9 12.0 90 0.9 N 7 9 4 5 - - 0.0
27/09:30pm 13.9 14.5 11.9 88 1.1 CALM 0 0 0 0 - - 0.0
27/09:00pm 14.1 14.2 11.6 85 1.4 E 2 6 1 3 - - 0.0
27/08:30pm 14.8 15.4 11.9 83 1.6 CALM 0 0 0 0 - - 0.0
27/08:00pm 15.2 15.1 12.0 81 1.8 S 4 7 2 4 - - 0.0
27/07:30pm 16.1 15.5 12.3 78 2.1 S 7 9 4 5 - - 0.0
27/07:00pm 17.2 16.7 11.9 71 2.9 S 6 7 3 4 - - 0.0
27/06:30pm 18.4 17.8 12.4 68 3.4 E 7 9 4 5 - - 0.0
27/06:00pm 18.9 18.5 12.4 66 3.7 NE 6 7 3 4 - - 0.0
27/05:30pm 19.6 18.4 11.6 60 4.5 SSE 9 15 5 8 - - 0.0
27/05:00pm 19.9 19.2 11.9 60 4.5 S 7 17 4 9 - - 0.0
27/04:30pm 20.4 19.8 11.6 57 4.9 NNW 6 11 3 6 - - 0.0
27/04:00pm 20.8 19.2 10.3 51 5.8 N 9 15 5 8 - - 0.0
27/03:30pm 19.9 18.3 11.4 58 4.7 NW 11 17 6 9 - - 0.0
27/03:00pm 21.8 18.8 9.3 45 6.8 WSW 15 22 8 12 - - 0.0
27/02:30pm 24.1 21.3 6.8 33 9.1 NNW 11 20 6 11 - - 0.0
27/02:00pm 23.8 22.0 7.0 34 8.8 W 6 9 3 5 - - 0.0
27/01:30pm 24.2 21.1 7.4 34 8.9 N 13 22 7 12 - - 0.0
27/01:00pm 24.2 21.5 7.4 34 8.9 NW 11 24 6 13 - - 0.0
27/12:30pm 24.7 21.8 8.2 35 8.9 N 13 17 7 9 - - 0.0
27/12:00pm 23.0 20.1 8.3 39 7.9 N 13 20 7 11 - - 0.0
27/11:30am 22.4 19.8 9.2 43 7.2 NNW 13 20 7 11 - - 0.0
27/11:00am 23.1 20.2 9.8 43 7.3 N 15 22 8 12 - - 0.0
27/10:30am 21.9 19.4 9.8 46 6.6 NNW 13 22 7 12 - - 0.0
27/10:00am 20.6 19.3 11.2 55 5.2 N 9 13 5 7 - - 0.0
27/09:30am 17.6 15.2 10.0 61 4.1 N 13 19 7 10 - - 0.0
27/09:00am 16.8 15.2 10.2 65 3.5 N 9 17 5 9 - - 0.0
27/08:30am 16.1 14.5 10.2 68 3.1 N 9 13 5 7 - - 0.0
27/08:00am 14.5 12.9 10.1 75 2.3 N 9 13 5 7 - - 0.0
27/07:30am 13.8 12.1 10.0 78 2.0 NNE 9 13 5 7 - - 0.0
27/07:00am 13.4 11.7 9.8 79 1.9 NNE 9 15 5 8 - - 0.0
27/06:30am 13.4 11.6 9.6 78 2.0 N 9 15 5 8 - - 0.0
27/06:00am 13.7 11.9 9.6 76 2.1 NNE 9 13 5 7 - - 0.0
27/05:30am 13.6 12.3 9.3 75 2.2 NNE 6 11 3 6 - - 0.0
27/05:00am 13.8 12.2 8.8 72 2.6 N 7 11 4 6 - - 0.0
27/04:30am 14.3 12.4 9.1 71 2.7 N 9 13 5 7 - - 0.0
27/04:00am 14.9 13.0 9.1 68 3.0 N 9 15 5 8 - - 0.0
27/03:30am 15.2 12.9 8.9 66 3.3 NE 11 20 6 11 - - 0.0
27/03:00am 15.4 13.1 9.1 66 3.3 NNE 11 24 6 13 - - 0.0
27/02:30am 15.2 13.1 9.6 69 2.9 NE 11 20 6 11 - - 0.0
27/02:00am 14.9 12.8 9.9 72 2.6 NE 11 20 6 11 - - 0.0
27/01:30am 14.7 12.4 10.3 75 2.3 NNE 13 22 7 12 - - 0.0
27/01:00am 14.3 12.8 10.5 78 2.0 NNE 9 15 5 8 - - 0.0
27/12:30am 14.2 12.7 10.4 78 2.0 NE 9 15 5 8 - - 0.0
27/12:00am 13.8 12.5 10.0 78 2.0 NNE 7 11 4 6 - - 0.0
 
Date/Time
WST
Temp
°C
App
Temp
°C
Dew
Point
Rel
Hum
%
Delta-T
°C
Wind Press
QNH
hPa
Press
MSL
hPa
Rain
since 9 am
mm
Dir
 
Spd
km/h
Gust
km/h
Spd
kts
Gust
kts
26/11:30pm 14.1 12.8 10.1 77 2.1 ENE 7 13 4 7 - - 0.0
26/11:00pm 14.5 12.9 10.3 76 2.2 NE 9 17 5 9 - - 0.0
26/10:30pm 14.8 13.6 10.4 75 2.3 NE 7 13 4 7 - - 0.0
26/10:00pm 15.2 13.7 10.4 73 2.6 ENE 9 15 5 8 - - 0.0
26/09:30pm 15.8 14.3 10.6 71 2.8 ENE 9 17 5 9 - - 0.0
26/09:00pm 16.3 14.4 10.4 68 3.2 ENE 11 19 6 10 - - 0.0
26/08:30pm 16.8 15.3 10.4 66 3.4 E 9 17 5 9 - - 0.0
26/08:00pm 17.4 15.9 10.5 64 3.7 E 9 19 5 10 - - 0.0
26/07:30pm 18.3 16.5 10.7 61 4.1 E 11 22 6 12 - - 0.0
26/07:00pm 19.5 16.8 10.2 55 5.1 E 15 24 8 13 - - 0.0

Other Formats:

Comma delimited format used in spreadsheet applications
http://www.bom.gov.au/fwo/IDW60801/IDW60801.94631.axf

JavaScript Object Notation format (JSON) in row-major order
http://www.bom.gov.au/fwo/IDW60801/IDW60801.94631.json